Time;durP1;ratioP1;P1;durP2;ratioP2;P2;SDS_P1;SDS_P2;PMS_P1;PMS_P2;Temp;Humidity;BMP_temperature;BMP_pressure;BME280_temperature;BME280_humidity;BME280_pressure;Samples;Min_cycle;Max_cycle;Signal;HPM_P1;HPM_P2
2022/10/22 00:01:06;;;;;;;9.88;6.18;;;13.70;99.90;;;;;;4938228;29;20035;-66
2022/10/22 00:03:32;;;;;;;8.98;5.38;;;13.80;99.90;;;;;;4938194;29;20047;-65
2022/10/22 00:05:58;;;;;;;9.35;5.60;;;13.60;99.90;;;;;;4937835;29;20045;-65
2022/10/22 00:08:23;;;;;;;8.73;5.30;;;13.70;99.90;;;;;;4954877;29;20034;-65
2022/10/22 00:10:49;;;;;;;12.55;5.45;;;13.70;99.90;;;;;;4938209;29;20090;-65
2022/10/22 00:13:15;;;;;;;9.00;5.55;;;13.70;99.90;;;;;;4937693;29;20050;-65
2022/10/22 00:15:41;;;;;;;10.43;5.60;;;;;;;;;;4954952;29;20039;-65
2022/10/22 00:18:07;;;;;;;13.15;5.38;;;13.60;99.90;;;;;;4937410;29;20049;-66
2022/10/22 00:20:32;;;;;;;11.82;5.80;;;13.80;99.90;;;;;;4954869;28;20039;-65
2022/10/22 00:22:58;;;;;;;14.93;5.90;;;13.80;99.90;;;;;;4937712;29;20094;-65
2022/10/22 00:25:24;;;;;;;12.10;6.20;;;13.80;99.90;;;;;;4937907;29;20255;-65
2022/10/22 00:27:50;;;;;;;10.07;6.18;;;;;;;;;;4937344;29;20031;-65
2022/10/22 00:30:15;;;;;;;11.05;6.53;;;13.80;99.90;;;;;;4937787;29;20109;-65
2022/10/22 00:32:41;;;;;;;13.73;6.25;;;13.80;99.90;;;;;;4954847;28;20047;-65
2022/10/22 00:35:07;;;;;;;13.65;6.57;;;;;;;;;;4954954;28;20043;-65
2022/10/22 00:37:33;;;;;;;12.73;5.82;;;;;;;;;;4937465;29;20043;-66
2022/10/22 00:39:59;;;;;;;13.68;6.95;;;;;;;;;;4954715;28;20401;-65
2022/10/22 00:42:26;;;;;;;12.30;6.78;;;13.70;99.90;;;;;;4937503;29;20042;-65
2022/10/22 00:45:10;;;;;;;12.43;6.95;;;13.80;99.90;;;;;;4921447;29;20043;-65
2022/10/22 00:48:04;;;;;;;10.63;6.72;;;13.90;99.90;;;;;;4954581;28;20493;-65
2022/10/22 00:50:56;;;;;;;10.95;6.65;;;13.50;99.90;;;;;;4940671;29;20074;-65
2022/10/22 00:53:28;;;;;;;13.38;7.32;;;13.60;99.90;;;;;;4937542;29;20140;-65
2022/10/22 00:55:54;;;;;;;14.23;7.20;;;13.50;99.90;;;;;;4940929;29;20055;-65
2022/10/22 00:58:24;;;;;;;11.15;6.65;;;13.30;99.90;;;;;;4958584;28;20055;-65
2022/10/22 01:00:50;;;;;;;12.40;7.05;;;;;;;;;;4941595;29;20047;-65
2022/10/22 01:03:16;;;;;;;14.25;7.30;;;;;;;;;;4958098;28;20053;-65
2022/10/22 01:05:54;;;;;;;8.68;6.43;;;13.40;99.90;;;;;;4940840;29;20402;-65
2022/10/22 01:08:40;;;;;;;16.30;8.15;;;13.40;99.90;;;;;;4940769;29;20052;-65
2022/10/22 01:11:22;;;;;;;8.52;6.90;;;13.50;99.90;;;;;;4958589;29;20166;-65
2022/10/22 01:14:09;;;;;;;14.20;7.50;;;13.30;99.90;;;;;;4941125;29;20039;-65
2022/10/22 01:16:47;;;;;;;13.20;7.65;;;13.50;99.90;;;;;;4940797;29;20489;-65
2022/10/22 01:19:37;;;;;;;12.60;6.88;;;13.50;99.90;;;;;;4940928;29;20031;-65
2022/10/22 01:22:11;;;;;;;9.57;6.55;;;13.40;99.90;;;;;;4940838;29;20090;-65
2022/10/22 01:24:37;;;;;;;9.65;6.10;;;;;;;;;;4958080;28;20043;-65
2022/10/22 01:27:33;;;;;;;10.48;6.68;;;13.60;99.90;;;;;;4957847;29;20414;-65
2022/10/22 01:30:06;;;;;;;11.98;6.85;;;13.30;99.90;;;;;;4957900;28;20081;-65
2022/10/22 01:32:40;;;;;;;11.30;7.00;;;13.50;99.90;;;;;;4941244;29;20043;-65
2022/10/22 01:35:09;;;;;;;16.63;8.20;;;13.50;99.90;;;;;;4945828;29;20047;-65
2022/10/22 01:37:49;;;;;;;13.27;6.63;;;13.40;99.90;;;;;;4958038;28;20441;-65
2022/10/22 01:40:16;;;;;;;12.32;7.00;;;13.60;99.90;;;;;;4940926;29;20043;-65
2022/10/22 01:42:42;;;;;;;13.23;6.75;;;;;;;;;;4939868;29;20043;-65
2022/10/22 01:45:12;;;;;;;10.93;7.32;;;13.70;99.90;;;;;;4940294;29;20043;-65
2022/10/22 01:48:04;;;;;;;15.30;7.88;;;13.50;99.90;;;;;;4940622;29;20109;-65
2022/10/22 01:50:49;;;;;;;16.35;7.85;;;13.60;99.90;;;;;;4958228;29;20075;-65
2022/10/22 01:53:29;;;;;;;11.25;7.30;;;13.60;99.90;;;;;;4958083;28;20058;-65
2022/10/22 01:56:16;;;;;;;11.73;8.00;;;13.30;99.90;;;;;;4940197;29;20102;-65
2022/10/22 01:59:07;;;;;;;15.25;7.75;;;13.40;99.90;;;;;;4940451;29;20478;-65
2022/10/22 02:01:47;;;;;;;21.13;8.38;;;13.40;99.90;;;;;;4930907;29;20044;-64
2022/10/22 02:04:26;;;;;;;15.07;7.78;;;13.40;99.90;;;;;;4945233;29;20414;-65
2022/10/22 02:06:57;;;;;;;14.82;8.20;;;13.60;99.90;;;;;;4939081;29;20042;-65
2022/10/22 02:09:25;;;;;;;14.63;7.93;;;13.50;99.90;;;;;;4957413;29;20506;-65
2022/10/22 02:11:52;;;;;;;13.30;8.75;;;13.40;99.90;;;;;;4926731;29;20042;-65
2022/10/22 02:14:19;;;;;;;12.30;8.52;;;13.50;99.90;;;;;;4939980;29;20421;-65
2022/10/22 02:16:47;;;;;;;12.35;7.82;;;13.40;99.90;;;;;;4957327;29;20054;-65
2022/10/22 02:19:37;;;;;;;12.80;8.38;;;13.40;99.90;;;;;;4957875;29;20413;-65
2022/10/22 02:22:03;;;;;;;19.00;8.68;;;;;;;;;;4923842;29;20054;-65
2022/10/22 02:24:29;;;;;;;13.00;8.07;;;13.20;99.90;;;;;;4957176;28;20078;-65
2022/10/22 02:27:20;;;;;;;12.05;8.73;;;13.20;99.90;;;;;;4939541;29;20043;-65
2022/10/22 02:30:17;;;;;;;13.25;7.90;;;13.30;99.90;;;;;;4912281;29;20039;-65
2022/10/22 02:32:55;;;;;;;12.70;7.90;;;13.20;99.90;;;;;;4938453;29;20055;-64
2022/10/22 02:35:23;;;;;;;13.93;8.27;;;13.20;99.90;;;;;;4956842;29;20047;-65
2022/10/22 02:37:50;;;;;;;12.85;8.48;;;13.00;99.90;;;;;;4952878;29;20051;-65
2022/10/22 02:40:16;;;;;;;17.10;9.18;;;13.20;99.90;;;;;;4930127;29;20059;-64
2022/10/22 02:42:42;;;;;;;12.00;8.43;;;13.30;99.90;;;;;;4956397;28;20039;-65
2022/10/22 02:45:09;;;;;;;10.88;8.25;;;13.10;99.90;;;;;;4939095;29;20046;-65
2022/10/22 02:47:34;;;;;;;14.95;8.45;;;13.10;99.90;;;;;;4956663;29;20135;-65
2022/10/22 02:50:00;;;;;;;16.85;8.98;;;13.20;99.90;;;;;;4939169;29;20065;-65
2022/10/22 02:52:26;;;;;;;16.38;9.38;;;;;;;;;;4923593;29;20070;-65
2022/10/22 02:54:51;;;;;;;12.18;8.18;;;13.30;99.90;;;;;;4938689;29;20390;-65
2022/10/22 02:57:17;;;;;;;13.82;9.07;;;13.20;99.90;;;;;;4956186;29;20062;-64
2022/10/22 02:59:42;;;;;;;17.50;8.70;;;13.30;99.90;;;;;;4939296;29;20058;-65
2022/10/22 03:02:08;;;;;;;14.15;9.30;;;13.10;99.90;;;;;;4939227;29;20047;-64
2022/10/22 03:04:33;;;;;;;17.65;10.48;;;13.00;99.90;;;;;;4939429;29;20039;-65
2022/10/22 03:06:59;;;;;;;15.13;10.25;;;13.00;99.90;;;;;;4956205;29;20062;-65
2022/10/22 03:09:25;;;;;;;16.88;9.65;;;13.00;99.90;;;;;;4938807;29;20114;-64
2022/10/22 03:11:51;;;;;;;15.85;10.30;;;;;;;;;;4938608;29;20219;-65
2022/10/22 03:14:17;;;;;;;15.95;9.85;;;12.90;99.90;;;;;;4939020;29;20039;-65
2022/10/22 03:16:43;;;;;;;20.73;10.10;;;12.90;99.90;;;;;;4939185;29;20051;-65
2022/10/22 03:19:08;;;;;;;13.88;9.60;;;12.90;99.90;;;;;;4956004;28;20037;-65
2022/10/22 03:22:00;;;;;;;15.45;10.40;;;13.00;99.90;;;;;;4955786;29;20407;-64
2022/10/22 03:24:38;;;;;;;21.23;10.18;;;13.20;99.90;;;;;;4921131;29;20080;-65
2022/10/22 03:27:04;;;;;;;17.00;10.27;;;12.90;99.90;;;;;;4955387;29;20527;-64
2022/10/22 03:29:34;;;;;;;14.48;10.15;;;12.80;99.90;;;;;;4938486;29;20090;-65
2022/10/22 03:32:00;;;;;;;17.75;9.80;;;;;;;;;;4938394;29;20051;-65
2022/10/22 03:34:25;;;;;;;16.58;9.63;;;12.80;99.90;;;;;;4938438;29;20386;-65
2022/10/22 03:36:52;;;;;;;17.40;10.68;;;12.90;99.90;;;;;;4922436;28;20039;-65
2022/10/22 03:39:20;;;;;;;14.43;10.25;;;12.90;99.90;;;;;;4955948;29;20134;-65
2022/10/22 03:41:48;;;;;;;16.98;10.38;;;13.00;99.90;;;;;;4938107;29;20058;-64
2022/10/22 03:44:15;;;;;;;19.08;10.27;;;12.80;99.90;;;;;;4921966;29;20074;-65
2022/10/22 03:46:41;;;;;;;20.67;10.88;;;;;;;;;;4955501;29;20512;-65
2022/10/22 03:49:07;;;;;;;13.02;10.40;;;12.90;99.90;;;;;;4938130;29;20047;-64
2022/10/22 03:51:33;;;;;;;17.98;10.43;;;13.00;99.90;;;;;;4937995;29;20133;-64
2022/10/22 03:53:59;;;;;;;15.38;10.57;;;;;;;;;;4938241;29;20043;-64
2022/10/22 03:56:25;;;;;;;19.77;10.82;;;;;;;;;;4955180;28;20073;-64
2022/10/22 03:58:50;;;;;;;21.13;10.30;;;12.90;99.90;;;;;;4955337;29;20043;-64
2022/10/22 04:01:16;;;;;;;19.73;10.93;;;12.90;99.90;;;;;;4955182;28;20047;-65
2022/10/22 04:03:41;;;;;;;19.67;11.32;;;12.90;99.90;;;;;;4955056;29;20039;-65
2022/10/22 04:06:09;;;;;;;16.58;11.63;;;12.90;99.90;;;;;;4938135;29;20070;-64
2022/10/22 04:08:36;;;;;;;17.52;12.05;;;;;;;;;;4937962;29;20504;-64
2022/10/22 04:11:01;;;;;;;20.13;10.32;;;12.80;99.90;;;;;;4937918;29;20058;-65
2022/10/22 04:13:27;;;;;;;20.17;10.65;;;;;;;;;;4937960;29;20051;-65
2022/10/22 04:15:53;;;;;;;16.20;10.30;;;12.90;99.90;;;;;;4922293;29;20073;-64
2022/10/22 04:18:21;;;;;;;18.38;10.80;;;12.90;99.90;;;;;;4937946;29;20425;-64
2022/10/22 04:20:47;;;;;;;16.02;11.02;;;12.80;99.90;;;;;;4955196;28;20042;-65
2022/10/22 04:23:13;;;;;;;16.92;10.70;;;;;;;;;;4938001;29;20043;-64
2022/10/22 04:25:39;;;;;;;15.93;9.95;;;12.90;99.90;;;;;;4954777;29;20488;-64
2022/10/22 04:28:09;;;;;;;15.30;9.75;;;12.70;99.90;;;;;;4937916;29;20586;-65
2022/10/22 04:30:35;;;;;;;15.30;10.07;;;12.80;99.90;;;;;;4937257;29;20053;-65
2022/10/22 04:33:01;;;;;;;15.98;10.27;;;12.70;99.90;;;;;;4937653;29;20039;-64
2022/10/22 04:35:28;;;;;;;19.05;10.85;;;12.80;99.90;;;;;;4954958;28;20043;-64
2022/10/22 04:37:54;;;;;;;24.48;10.98;;;12.70;99.90;;;;;;4937663;29;20039;-64
2022/10/22 04:40:20;;;;;;;18.23;9.93;;;;;;;;;;4955178;29;20087;-64
2022/10/22 04:42:46;;;;;;;18.88;10.70;;;12.80;99.90;;;;;;4937452;29;20090;-65
2022/10/22 04:45:14;;;;;;;19.13;10.15;;;;;;;;;;4937471;29;20039;-64
2022/10/22 04:47:40;;;;;;;20.52;10.52;;;;;;;;;;4937684;29;20409;-64
2022/10/22 04:50:06;;;;;;;14.50;9.55;;;;;;;;;;4937556;29;20114;-65
2022/10/22 04:52:32;;;;;;;15.20;9.80;;;12.70;99.90;;;;;;4938023;29;20075;-64
2022/10/22 04:54:57;;;;;;;16.60;10.00;;;12.70;99.90;;;;;;4955127;29;20055;-64
2022/10/22 04:57:23;;;;;;;20.55;10.65;;;12.60;99.90;;;;;;4937968;29;20059;-64
2022/10/22 04:59:48;;;;;;;18.02;9.48;;;12.70;99.90;;;;;;4937355;29;20085;-65
2022/10/22 05:02:14;;;;;;;21.02;11.10;;;12.80;99.90;;;;;;4937851;29;20082;-64
2022/10/22 05:04:43;;;;;;;17.90;11.20;;;12.80;99.90;;;;;;4942334;28;20039;-66
2022/10/22 05:07:08;;;;;;;20.38;10.68;;;12.70;99.90;;;;;;4937305;29;20122;-64
2022/10/22 05:09:34;;;;;;;17.30;10.25;;;12.60;99.90;;;;;;4936765;29;20166;-65
2022/10/22 05:11:59;;;;;;;20.73;10.07;;;12.70;99.90;;;;;;4945694;28;20118;-63
2022/10/22 05:14:25;;;;;;;17.25;10.18;;;12.80;99.90;;;;;;4953707;28;20043;-63
2022/10/22 05:16:51;;;;;;;15.32;10.13;;;12.70;99.90;;;;;;4953759;29;20039;-63
2022/10/22 05:19:23;;;;;;;15.88;10.10;;;12.80;99.90;;;;;;4953342;28;20035;-65
2022/10/22 05:21:50;;;;;;;16.90;10.75;;;12.80;99.90;;;;;;4953208;28;20094;-63
2022/10/22 05:24:16;;;;;;;18.85;10.18;;;12.80;99.90;;;;;;4952296;28;20051;-64
2022/10/22 05:26:41;;;;;;;15.95;9.45;;;12.80;99.90;;;;;;4953671;28;20564;-65
2022/10/22 05:29:07;;;;;;;18.02;9.45;;;13.00;99.90;;;;;;4953644;28;20035;-64
2022/10/22 05:31:33;;;;;;;14.38;9.60;;;12.80;99.90;;;;;;4938367;29;20043;-65
2022/10/22 05:33:58;;;;;;;17.52;8.88;;;12.80;99.90;;;;;;4938225;28;20039;-65
2022/10/22 05:36:24;;;;;;;14.40;9.68;;;12.90;99.90;;;;;;4936227;28;20106;-64
2022/10/22 05:38:50;;;;;;;15.82;9.10;;;;;;;;;;4935419;29;20090;-65
2022/10/22 05:41:21;;;;;;;19.00;9.70;;;12.80;99.90;;;;;;4936214;29;20051;-67
2022/10/22 05:43:47;;;;;;;17.50;9.50;;;;;;;;;;4939372;29;20179;-65
2022/10/22 05:46:18;;;;;;;17.67;8.75;;;13.10;99.90;;;;;;4956543;28;20066;-64
2022/10/22 05:48:48;;;;;;;13.55;9.52;;;13.10;99.90;;;;;;4939203;28;20066;-64
2022/10/22 05:51:13;;;;;;;16.63;9.20;;;13.10;99.90;;;;;;4956634;28;20042;-65
2022/10/22 05:53:41;;;;;;;18.48;9.15;;;13.10;99.90;;;;;;4939348;28;20043;-65
2022/10/22 05:56:10;;;;;;;17.02;9.18;;;12.90;99.90;;;;;;4939150;28;20055;-64
2022/10/22 05:58:36;;;;;;;14.95;8.60;;;13.10;99.90;;;;;;4956400;28;20101;-62
2022/10/22 06:01:12;;;;;;;14.27;8.52;;;13.10;99.90;;;;;;4957021;28;20039;-64
2022/10/22 06:03:37;;;;;;;21.33;8.82;;;13.20;99.90;;;;;;4939028;28;20039;-64
2022/10/22 06:06:13;;;;;;;17.52;8.75;;;13.20;99.90;;;;;;4957012;28;20035;-66
2022/10/22 06:08:39;;;;;;;13.25;8.48;;;13.30;99.90;;;;;;4939567;29;20071;-66
2022/10/22 06:11:04;;;;;;;18.55;7.75;;;13.30;99.90;;;;;;4939703;29;20077;-66
2022/10/22 06:13:31;;;;;;;14.85;8.68;;;13.20;99.90;;;;;;4956534;29;20039;-66
2022/10/22 06:15:57;;;;;;;16.00;8.52;;;13.30;99.90;;;;;;4956634;28;20054;-64
2022/10/22 06:18:23;;;;;;;16.95;7.78;;;;;;;;;;4956353;29;20031;-67
2022/10/22 06:20:49;;;;;;;16.13;7.72;;;13.30;99.90;;;;;;4938889;29;20492;-66
2022/10/22 06:23:14;;;;;;;18.05;8.15;;;13.20;99.90;;;;;;4944085;29;20035;-65
2022/10/22 06:25:41;;;;;;;20.05;7.43;;;13.30;99.90;;;;;;4939992;28;20067;-63
2022/10/22 06:28:06;;;;;;;13.88;7.88;;;13.40;99.90;;;;;;4938841;28;20410;-63
2022/10/22 06:30:32;;;;;;;14.38;7.68;;;13.30;99.90;;;;;;4955835;28;20043;-64
2022/10/22 06:32:57;;;;;;;15.85;7.57;;;13.30;99.90;;;;;;4938604;28;20039;-65
2022/10/22 06:35:23;;;;;;;12.05;7.40;;;13.40;99.90;;;;;;4938471;28;20051;-65
2022/10/22 06:37:49;;;;;;;12.73;7.57;;;13.30;99.90;;;;;;4956006;28;20039;-65
2022/10/22 06:40:15;;;;;;;13.60;7.10;;;;;;;;;;4955679;28;20514;-65
2022/10/22 06:42:41;;;;;;;16.80;7.43;;;13.50;99.90;;;;;;4955694;28;20434;-65
2022/10/22 06:45:07;;;;;;;13.48;7.03;;;13.50;99.90;;;;;;4955488;28;20122;-64
2022/10/22 06:47:33;;;;;;;14.40;6.53;;;13.50;99.90;;;;;;4955420;28;20031;-64
2022/10/22 06:49:58;;;;;;;12.77;7.72;;;13.40;99.90;;;;;;4937592;28;20042;-64
2022/10/22 06:52:24;;;;;;;15.65;6.43;;;13.50;99.90;;;;;;4954941;28;20503;-64
2022/10/22 06:54:50;;;;;;;16.73;6.60;;;;;;;;;;4938143;28;20078;-65
2022/10/22 06:57:15;;;;;;;16.30;7.25;;;13.60;99.90;;;;;;4938073;29;21264;-63
2022/10/22 06:59:41;;;;;;;15.77;7.03;;;13.60;99.90;;;;;;4937912;28;20042;-63
2022/10/22 07:02:09;;;;;;;14.80;6.60;;;13.70;99.90;;;;;;4938405;28;20536;-63
2022/10/22 07:04:34;;;;;;;11.52;6.10;;;13.70;99.90;;;;;;4937658;28;20047;-63
2022/10/22 07:07:00;;;;;;;11.43;6.32;;;13.70;99.90;;;;;;4938493;29;20123;-64
2022/10/22 07:09:26;;;;;;;13.32;6.32;;;13.70;99.90;;;;;;4955151;28;20039;-64
2022/10/22 07:11:52;;;;;;;15.55;6.13;;;;;;;;;;4955183;28;20071;-65
2022/10/22 07:14:17;;;;;;;16.27;6.85;;;13.80;99.90;;;;;;4955491;29;20046;-63
2022/10/22 07:16:44;;;;;;;15.27;6.70;;;13.80;99.90;;;;;;4946585;29;20486;-65
2022/10/22 07:19:11;;;;;;;14.13;6.30;;;13.90;99.90;;;;;;4937907;29;20047;-63
2022/10/22 07:21:36;;;;;;;14.38;5.93;;;13.90;99.90;;;;;;4938138;29;20047;-64
2022/10/22 07:24:02;;;;;;;12.35;6.75;;;13.90;99.90;;;;;;4950699;28;20039;-64
2022/10/22 07:26:29;;;;;;;12.40;6.20;;;14.10;99.90;;;;;;4937129;29;20090;-63
2022/10/22 07:28:55;;;;;;;15.98;6.85;;;13.80;99.90;;;;;;4951516;28;20383;-63
2022/10/22 07:31:21;;;;;;;17.33;5.97;;;13.90;99.90;;;;;;4954885;28;20049;-63
2022/10/22 07:33:47;;;;;;;14.43;6.05;;;14.00;99.90;;;;;;4954905;28;20090;-62
2022/10/22 07:36:16;;;;;;;11.43;6.40;;;14.00;99.90;;;;;;4954347;29;20140;-64
2022/10/22 07:38:47;;;;;;;19.85;6.57;;;14.00;99.90;;;;;;4936577;29;20040;-65
2022/10/22 07:41:14;;;;;;;18.58;6.47;;;13.90;99.90;;;;;;4934885;29;20516;-64
2022/10/22 07:43:40;;;;;;;15.88;6.00;;;14.00;99.90;;;;;;4936603;29;20102;-64
2022/10/22 07:46:07;;;;;;;13.95;6.57;;;14.10;99.90;;;;;;4952022;29;20446;-64
2022/10/22 07:48:34;;;;;;;17.63;6.80;;;14.20;99.90;;;;;;4954558;28;20153;-64
2022/10/22 07:51:00;;;;;;;15.98;6.93;;;14.00;99.90;;;;;;4937838;29;20549;-64
2022/10/22 07:53:25;;;;;;;9.98;5.68;;;14.10;99.90;;;;;;4955114;29;20039;-65
2022/10/22 07:55:51;;;;;;;14.95;5.38;;;14.00;99.90;;;;;;4937430;29;20514;-65
2022/10/22 07:58:18;;;;;;;9.95;5.28;;;14.10;99.90;;;;;;4934313;28;20457;-63
2022/10/22 08:00:44;;;;;;;10.85;6.28;;;14.10;99.90;;;;;;4954814;28;20046;-64
2022/10/22 08:03:11;;;;;;;11.27;5.72;;;14.30;99.90;;;;;;4934757;29;20039;-64
2022/10/22 08:05:38;;;;;;;12.57;6.05;;;14.40;99.90;;;;;;4935342;29;20047;-64
2022/10/22 08:08:04;;;;;;;12.65;6.00;;;14.90;99.90;;;;;;4954066;28;20031;-63
2022/10/22 08:10:30;;;;;;;12.15;5.18;;;14.60;99.90;;;;;;4936615;28;20039;-65
2022/10/22 08:12:56;;;;;;;18.20;6.03;;;14.70;99.90;;;;;;4936815;29;20163;-62
2022/10/22 08:15:23;;;;;;;11.88;5.10;;;15.10;99.90;;;;;;4953925;29;20039;-62
2022/10/22 08:17:49;;;;;;;13.40;5.13;;;15.40;99.90;;;;;;4919587;29;20402;-64
2022/10/22 08:20:15;;;;;;;10.63;5.10;;;15.70;99.90;;;;;;4953565;28;20043;-63
2022/10/22 08:22:40;;;;;;;11.30;4.40;;;15.90;99.90;;;;;;4936653;29;20513;-63
2022/10/22 08:25:06;;;;;;;10.60;4.50;;;15.90;99.90;;;;;;4947984;29;20193;-65
2022/10/22 08:27:32;;;;;;;10.32;4.45;;;17.40;99.90;;;;;;4937226;29;20035;-63
2022/10/22 08:29:57;;;;;;;15.57;4.50;;;18.30;99.90;;;;;;4937573;29;20414;-63
2022/10/22 08:32:23;;;;;;;10.45;3.75;;;18.40;99.90;;;;;;4953335;28;20041;-64
2022/10/22 08:34:48;;;;;;;10.38;3.95;;;19.70;99.90;;;;;;4953694;28;20130;-64
2022/10/22 08:37:15;;;;;;;7.55;3.53;;;19.80;99.90;;;;;;4936519;29;20051;-65
2022/10/22 08:39:41;;;;;;;7.60;3.33;;;20.00;99.90;;;;;;4948943;29;20054;-65
2022/10/22 08:42:09;;;;;;;12.63;3.20;;;20.50;99.90;;;;;;4921119;29;20035;-64
2022/10/22 08:44:47;;;;;;;10.48;2.92;;;20.40;99.90;;;;;;4954078;28;20043;-65
2022/10/22 08:47:40;;;;;;;9.85;2.88;;;20.50;99.90;;;;;;4940685;29;20042;-64
2022/10/22 08:50:11;;;;;;;10.27;2.90;;;20.30;99.90;;;;;;4937179;29;20397;-68
2022/10/22 08:52:40;;;;;;;11.57;3.05;;;20.50;99.90;;;;;;4953751;28;20043;-67
2022/10/22 08:55:13;;;;;;;9.55;2.38;;;20.60;99.90;;;;;;4951966;29;20043;-67
2022/10/22 08:57:51;;;;;;;6.90;2.63;;;19.00;99.90;;;;;;4952521;29;20043;-66
2022/10/22 09:00:33;;;;;;;7.47;3.00;;;19.80;99.90;;;;;;4953670;28;20496;-67
2022/10/22 09:03:21;;;;;;;20.10;3.38;;;20.70;99.90;;;;;;4936622;29;20095;-65
2022/10/22 09:05:55;;;;;;;10.45;2.42;;;20.90;99.90;;;;;;4942306;28;20130;-67
2022/10/22 09:08:21;;;;;;;9.57;3.70;;;21.70;99.90;;;;;;4953804;28;20051;-67
2022/10/22 09:10:52;;;;;;;10.93;2.97;;;20.70;99.90;;;;;;4936478;29;20413;-68
2022/10/22 09:13:20;;;;;;;9.27;3.00;;;19.60;99.90;;;;;;4939719;29;20141;-67
2022/10/22 09:16:12;;;;;;;10.40;2.30;;;18.50;99.90;;;;;;4936844;29;20122;-68
2022/10/22 09:19:14;;;;;;;10.30;2.33;;;18.00;99.90;;;;;;4952854;28;20039;-66
2022/10/22 09:21:54;;;;;;;13.15;3.25;;;17.50;99.90;;;;;;4939474;29;20516;-65
2022/10/22 09:24:28;;;;;;;9.07;2.90;;;17.20;99.90;;;;;;4936003;29;20039;-65
2022/10/22 09:26:56;;;;;;;10.48;3.40;;;16.90;99.90;;;;;;4939530;29;20043;-67
2022/10/22 09:29:25;;;;;;;13.23;3.75;;;16.80;99.90;;;;;;4939280;29;20047;-64
2022/10/22 09:31:50;;;;;;;10.85;2.65;;;16.40;99.90;;;;;;4956502;28;20039;-64
2022/10/22 09:34:20;;;;;;;9.30;2.90;;;16.50;99.90;;;;;;4956008;29;20035;-65
2022/10/22 09:36:46;;;;;;;9.95;3.45;;;16.30;99.90;;;;;;4954047;29;20441;-64
2022/10/22 09:39:24;;;;;;;13.15;3.60;;;16.40;99.90;;;;;;4938907;29;20055;-64
2022/10/22 09:41:50;;;;;;;14.40;2.90;;;16.40;99.90;;;;;;4955116;29;20066;-66
2022/10/22 09:44:17;;;;;;;12.68;3.88;;;16.30;99.90;;;;;;4955948;28;20490;-65
2022/10/22 09:46:44;;;;;;;14.05;4.10;;;;;;;;;;4939284;29;20122;-65
2022/10/22 09:49:13;;;;;;;16.27;4.55;;;16.00;99.90;;;;;;4938705;29;20093;-65
2022/10/22 09:51:55;;;;;;;10.43;3.50;;;16.00;99.90;;;;;;4939054;29;20431;-65
2022/10/22 09:54:33;;;;;;;11.95;3.45;;;16.10;99.90;;;;;;4956327;28;20069;-64
2022/10/22 09:57:11;;;;;;;11.52;4.95;;;16.00;99.90;;;;;;4955456;29;20074;-66
2022/10/22 09:59:40;;;;;;;13.90;3.60;;;16.00;99.90;;;;;;4955420;28;20183;-65
2022/10/22 10:02:17;;;;;;;13.65;3.33;;;16.10;99.90;;;;;;4936665;28;20042;-64
2022/10/22 10:04:52;;;;;;;10.88;3.50;;;16.20;99.90;;;;;;4938615;29;20050;-64
2022/10/22 10:07:29;;;;;;;9.05;4.10;;;16.10;99.90;;;;;;4922729;29;20638;-65
2022/10/22 10:09:54;;;;;;;12.10;4.10;;;16.30;99.90;;;;;;4954864;29;20068;-65
2022/10/22 10:12:29;;;;;;;13.13;3.60;;;16.30;99.90;;;;;;4921293;29;20118;-64
2022/10/22 10:15:28;;;;;;;11.15;4.00;;;16.30;99.90;;;;;;4938678;29;20146;-65
2022/10/22 10:18:07;;;;;;;14.60;4.22;;;16.20;99.90;;;;;;4937766;29;20054;-64
2022/10/22 10:20:45;;;;;;;10.25;4.60;;;16.30;99.90;;;;;;4937824;28;20461;-64
2022/10/22 10:23:11;;;;;;;12.63;4.35;;;;;;;;;;4938728;29;20039;-63
2022/10/22 10:25:37;;;;;;;8.98;4.07;;;;;;;;;;4938190;29;20090;-64
2022/10/22 10:28:28;;;;;;;10.15;4.85;;;15.90;99.90;;;;;;4954532;28;20046;-64
2022/10/22 10:31:06;;;;;;;15.52;4.93;;;16.10;99.90;;;;;;4916476;29;20051;-64
2022/10/22 10:33:38;;;;;;;13.88;4.35;;;15.90;99.90;;;;;;4937202;29;20035;-64
2022/10/22 10:36:23;;;;;;;17.77;4.85;;;15.80;99.90;;;;;;4938679;29;20039;-65
2022/10/22 10:39:22;;;;;;;16.40;5.68;;;15.80;99.90;;;;;;4917656;29;20253;-66
2022/10/22 10:42:34;;;;;;;18.85;4.68;;;15.90;99.90;;;;;;4935776;29;20047;-66
2022/10/22 10:45:13;;;;;;;12.10;4.60;;;15.90;99.90;;;;;;4946483;29;20399;-66
2022/10/22 10:47:53;;;;;;;13.75;5.32;;;16.00;99.90;;;;;;4922761;28;20054;-66
2022/10/22 10:50:49;;;;;;;12.88;4.55;;;15.90;99.90;;;;;;4941591;29;20046;-65
2022/10/22 10:53:45;;;;;;;16.83;5.57;;;15.80;99.90;;;;;;4938795;29;20442;-66
2022/10/22 10:56:32;;;;;;;18.02;5.63;;;15.90;99.90;;;;;;4937809;29;20059;-63
2022/10/22 10:59:15;;;;;;;15.82;5.05;;;16.00;99.90;;;;;;4938506;29;20043;-64
2022/10/22 11:01:55;;;;;;;15.80;6.10;;;15.90;99.90;;;;;;4940978;29;20051;-64
2022/10/22 11:04:54;;;;;;;17.35;5.20;;;15.80;99.90;;;;;;4938309;29;20054;-63
2022/10/22 11:07:25;;;;;;;11.48;5.07;;;16.00;99.90;;;;;;4937542;29;20100;-64
2022/10/22 11:10:01;;;;;;;32.75;5.60;;;15.80;99.90;;;;;;4952430;29;20039;-65
2022/10/22 11:12:35;;;;;;;13.00;5.18;;;16.30;99.90;;;;;;4954093;28;20117;-65
2022/10/22 11:15:27;;;;;;;17.65;5.45;;;16.00;99.90;;;;;;4953810;28;20066;-65
2022/10/22 11:17:58;;;;;;;13.52;4.85;;;16.00;99.90;;;;;;4937599;28;20043;-64
2022/10/22 11:20:34;;;;;;;14.73;4.53;;;16.00;99.90;;;;;;4955078;28;20561;-66
2022/10/22 11:23:07;;;;;;;9.35;4.50;;;16.20;99.90;;;;;;4921527;29;20055;-65
2022/10/22 11:25:41;;;;;;;7.53;4.07;;;16.60;99.90;;;;;;4953789;28;20510;-66
2022/10/22 11:28:25;;;;;;;13.80;4.47;;;16.30;99.90;;;;;;4937651;29;20035;-67
2022/10/22 11:31:00;;;;;;;12.98;5.18;;;16.70;99.90;;;;;;4936482;29;20282;-66
2022/10/22 11:33:37;;;;;;;11.13;3.88;;;16.40;99.90;;;;;;4935585;28;20540;-65
2022/10/22 11:36:05;;;;;;;18.25;5.45;;;16.40;99.90;;;;;;4954713;28;20046;-66
2022/10/22 11:38:33;;;;;;;11.30;3.67;;;16.30;99.90;;;;;;4937637;28;20050;-64
2022/10/22 11:41:08;;;;;;;13.55;4.30;;;16.20;99.90;;;;;;4954795;28;20066;-65
2022/10/22 11:43:50;;;;;;;;;;;16.90;99.90;;;;;;4937699;28;20553;-65
2022/10/22 11:46:16;;;;;;;15.48;4.13;;;16.20;99.90;;;;;;4954871;28;19922;-64
2022/10/22 11:48:42;;;;;;;12.40;4.07;;;16.20;99.90;;;;;;4938767;28;20046;-64
2022/10/22 11:51:28;;;;;;;19.67;5.65;;;16.10;99.90;;;;;;4954310;28;20536;-64
2022/10/22 11:54:00;;;;;;;17.58;4.75;;;16.10;99.90;;;;;;4933153;28;20035;-65
2022/10/22 11:56:35;;;;;;;17.00;5.32;;;16.00;99.90;;;;;;4937643;28;20055;-64
2022/10/22 11:59:01;;;;;;;16.92;6.78;;;15.90;99.90;;;;;;4936416;28;20557;-64
2022/10/22 12:01:38;;;;;;;15.10;6.35;;;16.00;99.90;;;;;;4954567;28;20114;-65
2022/10/22 12:04:15;;;;;;;17.38;5.80;;;15.80;99.90;;;;;;4954304;28;20549;-64
2022/10/22 12:06:57;;;;;;;20.48;7.50;;;15.70;99.90;;;;;;4954026;28;20039;-66
2022/10/22 12:09:25;;;;;;;26.85;7.35;;;15.70;99.90;;;;;;4921628;28;20106;-65
2022/10/22 12:11:51;;;;;;;14.90;5.95;;;15.60;99.90;;;;;;4954527;29;20043;-66
2022/10/22 12:14:28;;;;;;;15.45;6.22;;;15.60;99.90;;;;;;4937798;29;20039;-64
2022/10/22 12:16:58;;;;;;;23.17;6.55;;;15.70;99.90;;;;;;4934910;29;20087;-63
2022/10/22 12:19:34;;;;;;;10.48;6.28;;;15.70;99.90;;;;;;4928447;29;20054;-64
2022/10/22 12:22:21;;;;;;;16.08;6.35;;;15.80;99.90;;;;;;4937453;29;20051;-65
2022/10/22 12:24:49;;;;;;;24.88;6.32;;;15.70;99.90;;;;;;4954590;29;20495;-64
2022/10/22 12:27:25;;;;;;;11.13;5.32;;;15.90;99.90;;;;;;4928144;28;20058;-66
2022/10/22 12:29:55;;;;;;;16.92;6.18;;;17.30;99.90;;;;;;4934962;28;20035;-67
2022/10/22 12:32:23;;;;;;;16.95;6.00;;;16.10;99.90;;;;;;4936647;29;20043;-66
2022/10/22 12:34:51;;;;;;;19.02;6.32;;;16.20;99.90;;;;;;4936750;28;20497;-67
2022/10/22 12:37:18;;;;;;;21.33;6.57;;;16.30;99.90;;;;;;4937014;28;20122;-66
2022/10/22 12:39:44;;;;;;;14.77;4.35;;;16.20;99.90;;;;;;4953889;28;20098;-66
2022/10/22 12:42:13;;;;;;;8.88;3.85;;;16.10;99.90;;;;;;4937216;28;20081;-66
2022/10/22 12:44:39;;;;;;;13.98;3.95;;;16.30;99.90;;;;;;4952630;28;20115;-66
2022/10/22 12:47:07;;;;;;;10.32;4.00;;;16.40;99.90;;;;;;4953965;28;20114;-67
2022/10/22 12:49:37;;;;;;;14.13;4.18;;;16.50;99.90;;;;;;4936892;28;20074;-66
2022/10/22 12:52:06;;;;;;;13.13;3.65;;;16.40;99.90;;;;;;4940110;28;20040;-68
2022/10/22 12:54:34;;;;;;;9.55;2.88;;;16.60;99.90;;;;;;4957642;28;20031;-67
2022/10/22 12:57:00;;;;;;;14.20;3.47;;;16.50;99.90;;;;;;4957860;29;20059;-64
2022/10/22 12:59:34;;;;;;;11.70;3.63;;;16.70;99.90;;;;;;4940711;28;20047;-64
2022/10/22 13:02:01;;;;;;;6.57;2.55;;;16.70;99.90;;;;;;4928578;29;20101;-66
2022/10/22 13:04:36;;;;;;;16.33;2.90;;;16.60;99.90;;;;;;4957427;29;20541;-66
2022/10/22 13:07:11;;;;;;;6.93;1.63;;;16.50;99.90;;;;;;4940438;29;20042;-66